Thursday, November 15, 2018, 9:41 AM EST
Back to Local

KAGC, Pittsburgh Allegheny Cty.

Location: West Mifflin, PA, United States Lat: 40.35
Local Time: 9:41 AM EST (14:41 GMT) Lon: -79.917
Time Zone: US/Eastern Elev: 1253 ft

Show me the last for .
Show Decoded

2018-11-15 08:53 METAR KAGC 151353Z 09007KT 6SM -FZRA BR OVC065 M01/M02 A3023 RMK AO2 SLP256
                 P0005 I1000 T10061022 =
2018-11-15 07:53 METAR KAGC 151253Z 11006KT 10SM -FZRA OVC070 M01/M03 A3024 RMK AO2 RAE43FZRAB43
                 SLP261 P0000 I1000 T10061033 =
2018-11-15 07:49 METAR KAGC 151249Z 10006KT 10SM -FZRA OVC070 M01/M03 A3024 RMK AO2 RAE43FZRAB43
                 P0000 I1000 =
2018-11-15 06:53 METAR KAGC 151153Z 11009KT 10SM RA OVC070 M01/M04 A3024 RMK AO2 UPE1054RAB1054
                 SLP260 P0000 60000 T10061044 10000 21017 55004 =
2018-11-15 05:53 METAR KAGC 151053Z 10008KT 10SM UP OVC080 00/M06 A3023 RMK AO2 SLP256 P0000
                 T00001056 =
2018-11-15 04:53 METAR KAGC 150953Z AUTO 09008KT 10SM UP BKN090 OVC110 00/M07 A3025 RMK AO2 UPB52
                 SLP261 P0000 T00001067 =
2018-11-15 03:53 METAR KAGC 150853Z 09008KT 10SM FEW080 OVC100 M01/M07 A3026 RMK AO2 SLP265
                 T10061072 58035 =
2018-11-15 02:53 METAR KAGC 150753Z 08009KT 10SM SCT120 M01/M07 A3031 RMK AO2 PRESFR SLP283
                 T10111072 =
2018-11-15 01:53 METAR KAGC 150653Z 07006KT 10SM CLR M01/M07 A3034 RMK AO2 SLP294 T10111072 =
2018-11-15 00:53 METAR KAGC 150553Z 05006KT 10SM CLR M02/M07 A3036 RMK AO2 SLP302 T10171072 11011
                 21022 56022 =
2018-11-14 23:53 METAR KAGC 150453Z 05008G14KT 10SM CLR M02/M07 A3038 RMK AO2 SLP307 T10171072
                 400061033 =
2018-11-14 22:53 METAR KAGC 150353Z 07006KT 10SM CLR M02/M07 A3040 RMK AO2 SLP315 T10171072 =
2018-11-14 21:53 METAR KAGC 150253Z 06004KT 10SM CLR M02/M07 A3043 RMK AO2 SLP326 T10171072 58007
                 =
2018-11-14 20:53 METAR KAGC 150153Z 06003KT 10SM CLR M02/M07 A3045 RMK AO2 SLP334 T10171072 =
2018-11-14 19:53 METAR KAGC 150053Z 00000KT 10SM CLR M02/M07 A3046 RMK AO2 SLP336 T10171072 =
2018-11-14 18:53 METAR KAGC 142353Z AUTO VRB03KT 10SM CLR M01/M07 A3045 RMK AO2 SLP333 T10111072
                 10006 21017 56007 =
2018-11-14 17:53 METAR KAGC 142253Z 35003KT 10SM CLR M02/M06 A3046 RMK AO2 SLP337 T10171056 =
2018-11-14 16:53 METAR KAGC 142153Z 00000KT 10SM CLR M01/M07 A3046 RMK AO2 SLP334 T10111072 =
2018-11-14 15:53 METAR KAGC 142053Z VRB03KT 10SM CLR M01/M07 A3048 RMK AO2 SLP341 T10061072 56003
                 =
2018-11-14 14:53 METAR KAGC 141953Z 00000KT 10SM CLR M01/M07 A3048 RMK AO2 SLP341 T10061072 =
2018-11-14 13:53 METAR KAGC 141853Z VRB03KT 10SM CLR 00/M07 A3048 RMK AO2 SLP340 T00001067 =
2018-11-14 12:53 METAR KAGC 141753Z 33004KT 10SM FEW029 M01/M07 A3048 RMK AO2 SLP343 T10061072
                 11006 21028 50001 =
2018-11-14 11:53 METAR KAGC 141653Z 00000KT 10SM CLR M01/M08 A3051 RMK AO2 SLP350 T10111078 =
2018-11-14 11:27 METAR KAGC 141627Z 33006KT 10SM SCT029 M01/M07 A3051 RMK AO2 T10111072 =
2018-11-14 10:53 METAR KAGC 141553Z 00000KT 10SM BKN029 M02/M07 A3050 RMK AO2 SLP348 T10171072 =
2018-11-14 09:53 METAR KAGC 141453Z 25006KT 10SM OVC030 M02/M08 A3048 RMK AO2 SLP343 T10221078
                 51019 =

Support USWX by starting your Amazon purchase here.